createdAt,value
2022-10-24T00:02:46.349Z,6.53
2022-10-24T00:05:52.770Z,5.80
2022-10-24T00:08:59.091Z,5.90
2022-10-24T00:12:05.783Z,6.77
2022-10-24T00:15:12.135Z,6.60
2022-10-24T00:18:19.635Z,4.90
2022-10-24T00:21:25.677Z,5.67
2022-10-24T00:24:32.023Z,5.40
2022-10-24T00:27:38.386Z,5.70
2022-10-24T00:30:44.836Z,5.43
2022-10-24T00:33:52.251Z,4.33
2022-10-24T00:36:58.239Z,4.70
2022-10-24T00:40:05.417Z,7.53
2022-10-24T00:43:16.374Z,4.37
2022-10-24T00:46:22.635Z,6.47
2022-10-24T00:49:33.203Z,6.47
2022-10-24T00:52:44.616Z,5.70
2022-10-24T00:55:53.538Z,5.23
2022-10-24T00:59:00.918Z,4.70
2022-10-24T01:02:07.440Z,4.00
2022-10-24T01:05:15.927Z,7.37
2022-10-24T01:08:32.590Z,5.47
2022-10-24T01:11:54.881Z,4.50
2022-10-24T01:15:06.868Z,4.23
2022-10-24T01:18:18.746Z,6.20
2022-10-24T01:21:34.350Z,6.00
2022-10-24T01:24:59.489Z,7.27
2022-10-24T01:28:10.279Z,6.83
2022-10-24T01:31:26.098Z,7.70
2022-10-24T01:34:42.863Z,7.23
2022-10-24T01:37:54.108Z,5.40
2022-10-24T01:41:04.132Z,6.10
2022-10-24T01:44:16.681Z,6.10
2022-10-24T01:47:28.112Z,28.30
2022-10-24T01:50:38.103Z,7.47
2022-10-24T01:53:45.317Z,21.33
2022-10-24T01:56:52.848Z,8.67
2022-10-24T01:59:58.899Z,5.80
2022-10-24T02:03:17.387Z,5.07
2022-10-24T02:06:28.382Z,4.43
2022-10-24T02:09:37.037Z,6.27
2022-10-24T02:12:50.640Z,4.83
2022-10-24T02:15:59.866Z,4.20
2022-10-24T02:19:07.731Z,3.60
2022-10-24T02:22:22.885Z,4.23
2022-10-24T02:25:35.073Z,3.50
2022-10-24T02:28:44.850Z,3.43
2022-10-24T02:31:55.443Z,3.77
2022-10-24T02:35:05.500Z,3.83
2022-10-24T02:38:17.051Z,4.03
2022-10-24T02:41:26.946Z,4.73
2022-10-24T02:44:33.863Z,5.93
2022-10-24T02:47:42.051Z,6.07
2022-10-24T02:53:58.330Z,9.13
2022-10-24T02:57:05.460Z,9.97
2022-10-24T03:00:12.602Z,10.17
2022-10-24T03:03:18.620Z,7.83
2022-10-24T03:06:26.618Z,7.13
2022-10-24T03:09:32.547Z,6.43
2022-10-24T03:12:38.822Z,5.37
2022-10-24T03:15:45.085Z,5.47
2022-10-24T03:18:51.166Z,5.83
2022-10-24T03:21:58.866Z,6.87
2022-10-24T03:25:06.433Z,6.83
2022-10-24T03:28:12.708Z,6.27
2022-10-24T03:31:19.155Z,8.07
2022-10-24T03:34:25.575Z,7.73
2022-10-24T03:37:33.068Z,7.07
2022-10-24T03:40:40.130Z,9.00
2022-10-24T03:43:46.290Z,8.67
2022-10-24T03:46:52.520Z,13.90
2022-10-24T03:49:58.842Z,10.47
2022-10-24T03:53:06.496Z,8.60
2022-10-24T03:56:12.765Z,10.40
2022-10-24T03:59:19.341Z,8.23
2022-10-24T04:02:25.048Z,14.73
2022-10-24T04:05:31.414Z,8.70
2022-10-24T04:08:38.935Z,9.77
2022-10-24T04:11:44.861Z,22.80
2022-10-24T04:14:51.051Z,12.70
2022-10-24T04:17:57.300Z,7.40
2022-10-24T04:21:03.979Z,9.30
2022-10-24T04:24:11.601Z,7.60
2022-10-24T04:27:17.987Z,10.67
2022-10-24T04:30:24.451Z,11.07
2022-10-24T04:33:30.753Z,13.60
2022-10-24T04:36:37.137Z,11.37
2022-10-24T04:39:45.085Z,15.53
2022-10-24T04:42:51.355Z,20.37
2022-10-24T04:45:57.749Z,15.53
2022-10-24T04:49:04.120Z,12.13
2022-10-24T04:52:10.272Z,17.43
2022-10-24T04:55:18.147Z,16.40
2022-10-24T04:58:24.474Z,19.87
2022-10-24T05:01:30.775Z,18.20
2022-10-24T05:04:36.559Z,13.77
2022-10-24T05:07:43.095Z,10.10
2022-10-24T05:10:51.059Z,15.03
2022-10-24T05:13:57.069Z,14.30
2022-10-24T05:17:03.481Z,9.40
2022-10-24T05:20:11.290Z,8.20
2022-10-24T05:23:17.457Z,9.57
2022-10-24T05:26:25.274Z,21.93
2022-10-24T05:29:31.428Z,29.77
2022-10-24T05:32:39.627Z,24.10
2022-10-24T05:35:46.264Z,16.13
2022-10-24T05:38:52.793Z,11.63
2022-10-24T05:42:00.696Z,9.77
2022-10-24T05:45:08.398Z,13.23
2022-10-24T05:48:14.864Z,28.63
2022-10-24T05:51:21.308Z,10.43
2022-10-24T05:54:33.431Z,10.50
2022-10-24T05:57:50.239Z,11.30
2022-10-24T06:00:56.241Z,13.43
2022-10-24T06:04:02.498Z,14.03
2022-10-24T06:07:08.823Z,13.47
2022-10-24T06:10:15.711Z,12.30
2022-10-24T06:13:23.415Z,8.90
2022-10-24T06:16:30.802Z,7.57
2022-10-24T06:19:37.915Z,9.00
2022-10-24T06:22:46.321Z,9.50
2022-10-24T06:25:52.956Z,9.80
2022-10-24T06:29:00.655Z,10.20
2022-10-24T06:32:06.721Z,11.03
2022-10-24T06:35:14.836Z,9.67
2022-10-24T06:38:20.849Z,16.77
2022-10-24T06:41:27.365Z,12.33
2022-10-24T06:44:35.152Z,14.37
2022-10-24T06:47:41.599Z,13.43
2022-10-24T06:50:48.023Z,13.50
2022-10-24T06:53:54.351Z,11.67
2022-10-24T06:57:00.803Z,11.73
2022-10-24T07:00:10.229Z,8.10
2022-10-24T07:03:17.700Z,9.13
2022-10-24T07:06:25.841Z,13.53
2022-10-24T07:09:32.140Z,11.07
2022-10-24T07:12:38.500Z,8.27
2022-10-24T07:15:46.166Z,8.07
2022-10-24T07:18:52.294Z,8.27
2022-10-24T07:21:59.426Z,7.00
2022-10-24T07:25:07.731Z,6.73
2022-10-24T07:28:13.882Z,7.60
2022-10-24T07:31:22.849Z,7.60
2022-10-24T07:34:28.877Z,8.13
2022-10-24T07:37:35.319Z,8.83
2022-10-24T07:40:41.397Z,8.67
2022-10-24T07:43:48.634Z,9.20
2022-10-24T07:46:56.116Z,8.53
2022-10-24T07:50:02.167Z,8.63
2022-10-24T07:53:08.522Z,9.43
2022-10-24T07:56:15.988Z,8.43
2022-10-24T07:59:40.875Z,6.60
2022-10-24T08:06:00.504Z,6.67
2022-10-24T08:09:06.880Z,6.00
2022-10-24T08:12:13.279Z,5.07
2022-10-24T08:15:19.876Z,5.40
2022-10-24T08:18:30.296Z,6.13
2022-10-24T08:21:37.581Z,5.40
2022-10-24T08:24:44.276Z,4.83
2022-10-24T08:27:50.381Z,4.97
2022-10-24T08:30:57.883Z,5.00
2022-10-24T08:34:06.235Z,5.17
2022-10-24T08:37:12.632Z,4.60
2022-10-24T08:40:21.047Z,4.97
2022-10-24T08:43:27.848Z,4.87
2022-10-24T08:46:49.007Z,4.53
2022-10-24T08:50:02.987Z,4.43
2022-10-24T08:53:15.171Z,5.17
2022-10-24T08:56:22.282Z,5.57
2022-10-24T08:59:32.001Z,4.93
2022-10-24T09:02:39.891Z,5.00
2022-10-24T09:05:51.695Z,3.93
2022-10-24T09:09:00.155Z,4.47
2022-10-24T09:12:12.516Z,5.47
2022-10-24T09:15:29.828Z,4.93
2022-10-24T09:18:39.422Z,5.00
2022-10-24T09:21:49.032Z,4.40
2022-10-24T09:24:59.804Z,4.47
2022-10-24T09:28:07.582Z,5.33
2022-10-24T09:31:19.005Z,4.30
2022-10-24T09:34:25.356Z,4.07
2022-10-24T09:37:43.928Z,3.33
2022-10-24T09:40:52.291Z,4.10
2022-10-24T09:44:00.605Z,3.43
2022-10-24T09:47:10.386Z,3.50
2022-10-24T09:50:21.936Z,3.70
2022-10-24T09:53:32.085Z,3.93
2022-10-24T09:56:40.677Z,3.43
2022-10-24T09:59:48.037Z,3.57
2022-10-24T10:03:03.193Z,3.70
2022-10-24T10:06:18.869Z,3.80
2022-10-24T10:09:31.870Z,4.73
2022-10-24T10:12:40.356Z,3.67
2022-10-24T10:15:50.469Z,4.73
2022-10-24T10:19:03.902Z,13.00
2022-10-24T10:22:26.635Z,4.10
2022-10-24T10:25:34.152Z,3.97
2022-10-24T10:28:49.480Z,3.57
2022-10-24T10:32:07.148Z,3.70
2022-10-24T10:35:21.249Z,3.67
2022-10-24T10:38:43.769Z,3.27
2022-10-24T10:41:59.040Z,3.80
2022-10-24T10:45:19.398Z,5.03
2022-10-24T10:48:38.843Z,3.73
2022-10-24T10:51:49.342Z,4.70
2022-10-24T10:55:15.217Z,5.73
2022-10-24T11:01:51.500Z,4.50
2022-10-24T11:05:10.597Z,4.03
2022-10-24T11:08:32.247Z,4.50
2022-10-24T11:11:42.440Z,4.20
2022-10-24T11:14:55.180Z,3.83
2022-10-24T11:18:07.775Z,5.30
2022-10-24T11:21:16.288Z,4.30
2022-10-24T11:24:24.655Z,3.60
2022-10-24T11:27:40.031Z,3.23
2022-10-24T11:30:54.341Z,3.40
2022-10-24T11:34:04.612Z,3.40
2022-10-24T11:37:17.552Z,3.87
2022-10-24T11:40:25.712Z,3.00
2022-10-24T11:43:39.158Z,2.80
2022-10-24T11:46:54.890Z,2.73
2022-10-24T11:50:08.488Z,2.83
2022-10-24T11:53:24.795Z,2.77
2022-10-24T11:56:41.263Z,2.60
2022-10-24T11:59:47.527Z,3.30
2022-10-24T12:03:24.920Z,3.07
2022-10-24T12:06:56.055Z,3.30
2022-10-24T12:10:19.329Z,2.93
2022-10-24T12:13:51.612Z,3.43
2022-10-24T12:17:27.132Z,3.40
2022-10-24T12:20:35.297Z,4.80
2022-10-24T12:23:43.242Z,3.27
2022-10-24T12:26:57.603Z,2.93
2022-10-24T12:30:17.270Z,3.43
2022-10-24T12:33:27.616Z,3.13
2022-10-24T12:37:08.278Z,3.10
2022-10-24T12:40:55.440Z,2.63
2022-10-24T12:44:41.276Z,4.27
2022-10-24T12:48:30.535Z,3.27
2022-10-24T12:51:37.616Z,2.73
2022-10-24T12:54:46.556Z,3.13
2022-10-24T12:57:52.863Z,3.87
2022-10-24T13:01:01.709Z,3.10
2022-10-24T13:04:52.280Z,2.77
2022-10-24T13:08:08.258Z,3.53
2022-10-24T13:11:34.132Z,3.10
2022-10-24T13:15:04.575Z,3.67
2022-10-24T13:18:21.043Z,3.23
2022-10-24T13:21:31.189Z,3.83
2022-10-24T13:24:38.247Z,3.03
2022-10-24T13:27:45.613Z,4.77
2022-10-24T13:30:54.237Z,4.13
2022-10-24T13:34:37.591Z,5.87
2022-10-24T13:37:49.712Z,5.20
2022-10-24T13:40:55.947Z,3.73
2022-10-24T13:44:08.811Z,4.23
2022-10-24T13:47:22.528Z,3.80
2022-10-24T13:50:31.818Z,4.80
2022-10-24T13:53:50.360Z,5.40
2022-10-24T13:56:58.466Z,5.30
2022-10-24T14:00:19.737Z,10.30
2022-10-24T14:03:29.016Z,4.03
2022-10-24T14:06:35.758Z,5.40
2022-10-24T14:09:44.525Z,4.63
2022-10-24T14:12:57.087Z,5.30
2022-10-24T14:16:08.013Z,4.87
2022-10-24T14:19:27.241Z,5.13
2022-10-24T14:22:39.887Z,7.00
2022-10-24T14:25:46.502Z,10.73
2022-10-24T14:28:59.782Z,10.03
2022-10-24T14:32:09.395Z,6.10
2022-10-24T14:35:17.222Z,8.93
2022-10-24T14:38:24.733Z,8.03
2022-10-24T14:41:32.683Z,8.80
2022-10-24T14:44:39.319Z,12.20
2022-10-24T14:47:52.810Z,9.80
2022-10-24T14:51:04.015Z,9.50
2022-10-24T14:54:18.666Z,6.60
2022-10-24T14:57:25.175Z,6.47
2022-10-24T15:00:40.233Z,5.80
2022-10-24T15:03:54.518Z,7.93
2022-10-24T15:07:14.975Z,10.97
2022-10-24T15:10:33.239Z,20.07
2022-10-24T15:13:48.183Z,14.93
2022-10-24T15:17:06.551Z,9.50
2022-10-24T15:20:18.480Z,9.17
2022-10-24T15:23:27.668Z,6.57
2022-10-24T15:26:36.763Z,9.13
2022-10-24T15:29:43.075Z,7.63
2022-10-24T15:32:51.236Z,9.53
2022-10-24T15:35:59.503Z,8.57
2022-10-24T15:39:07.771Z,18.03
2022-10-24T15:42:15.585Z,18.60
2022-10-24T15:45:24.548Z,26.33
2022-10-24T15:48:30.637Z,20.60
2022-10-24T15:51:39.425Z,16.53
2022-10-24T15:54:46.016Z,12.30
2022-10-24T15:57:52.545Z,13.23
2022-10-24T16:01:00.409Z,20.83
2022-10-24T16:04:08.379Z,22.47
2022-10-24T16:07:15.785Z,15.00
2022-10-24T16:10:24.034Z,13.53
2022-10-24T16:13:30.665Z,10.33
2022-10-24T16:16:37.165Z,11.53
2022-10-24T16:19:43.474Z,11.87
2022-10-24T16:26:16.134Z,15.57
2022-10-24T16:29:22.545Z,25.33
2022-10-24T16:32:29.103Z,50.90
2022-10-24T16:35:36.960Z,26.93
2022-10-24T16:38:45.362Z,52.33
2022-10-24T16:41:55.297Z,45.87
2022-10-24T16:45:02.496Z,39.47
2022-10-24T16:48:08.562Z,41.23
2022-10-24T16:51:17.413Z,47.10
2022-10-24T16:54:25.693Z,33.97
2022-10-24T16:57:31.975Z,29.83
2022-10-24T17:00:38.321Z,30.00
2022-10-24T17:03:46.047Z,29.87
2022-10-24T17:06:52.258Z,28.03
2022-10-24T17:10:00.007Z,23.07
2022-10-24T17:13:07.678Z,23.50
2022-10-24T17:16:13.916Z,24.30
2022-10-24T17:19:19.999Z,21.57
2022-10-24T17:22:26.379Z,20.27
2022-10-24T17:25:34.351Z,27.47
2022-10-24T17:28:40.914Z,25.97
2022-10-24T17:31:47.071Z,22.73
2022-10-24T17:34:55.423Z,25.57
2022-10-24T17:38:12.847Z,24.53
2022-10-24T17:41:25.155Z,25.37
2022-10-24T17:44:31.703Z,29.30
2022-10-24T17:47:37.746Z,29.10
2022-10-24T17:50:44.122Z,35.03
2022-10-24T17:53:50.458Z,31.77
2022-10-24T17:56:58.258Z,34.77
2022-10-24T18:00:05.076Z,35.77
2022-10-24T18:03:11.590Z,36.70
2022-10-24T18:06:18.021Z,38.33
2022-10-24T18:09:24.126Z,34.50
2022-10-24T18:12:34.721Z,35.30
2022-10-24T18:15:40.878Z,38.13
2022-10-24T18:18:48.056Z,30.30
2022-10-24T18:21:54.474Z,29.33
2022-10-24T18:25:00.646Z,31.73
2022-10-24T18:28:08.668Z,34.03
2022-10-24T18:31:16.903Z,35.27
2022-10-24T18:34:23.246Z,35.30
2022-10-24T18:37:29.695Z,39.40
2022-10-24T18:40:38.055Z,29.30
2022-10-24T18:43:46.393Z,44.87
2022-10-24T18:46:54.198Z,44.93
2022-10-24T18:50:00.798Z,37.90
2022-10-24T18:53:09.952Z,31.70
2022-10-24T18:56:18.696Z,45.43
2022-10-24T18:59:30.913Z,47.43
2022-10-24T19:02:40.570Z,101.87
2022-10-24T19:05:53.556Z,127.47
2022-10-24T19:09:01.179Z,46.23
2022-10-24T19:12:08.273Z,18.40
2022-10-24T19:15:17.063Z,16.27
2022-10-24T19:18:23.513Z,19.43
2022-10-24T19:21:29.874Z,14.37
2022-10-24T19:24:36.347Z,14.20
2022-10-24T19:27:42.802Z,21.57
2022-10-24T19:30:50.589Z,21.00
2022-10-24T19:33:56.560Z,19.60
2022-10-24T19:37:03.897Z,20.47
2022-10-24T19:40:11.267Z,19.20
2022-10-24T19:43:17.663Z,19.57
2022-10-24T19:46:25.474Z,21.73
2022-10-24T19:49:31.759Z,13.97
2022-10-24T19:52:37.919Z,14.40
2022-10-24T19:55:44.938Z,14.30
2022-10-24T19:58:51.012Z,10.03
2022-10-24T20:05:10.547Z,13.87
2022-10-24T20:08:16.799Z,9.20
2022-10-24T20:11:23.435Z,9.37
2022-10-24T20:14:29.347Z,9.43
2022-10-24T20:17:36.745Z,11.17
2022-10-24T20:20:43.902Z,10.33
2022-10-24T20:23:50.862Z,15.77
2022-10-24T20:26:57.244Z,9.07
2022-10-24T20:30:03.225Z,8.43
2022-10-24T20:33:10.768Z,7.30
2022-10-24T20:36:16.792Z,6.57
2022-10-24T20:39:23.089Z,7.43
2022-10-24T20:42:29.387Z,5.10
2022-10-24T20:45:39.970Z,10.00
2022-10-24T20:48:47.619Z,13.63
2022-10-24T20:51:53.854Z,19.87
2022-10-24T20:54:59.993Z,23.30
2022-10-24T20:58:06.751Z,8.37
2022-10-24T21:01:14.935Z,6.90
2022-10-24T21:04:22.683Z,8.03
2022-10-24T21:07:28.748Z,8.67
2022-10-24T21:10:34.963Z,7.53
2022-10-24T21:13:41.388Z,6.27
2022-10-24T21:16:47.496Z,6.93
2022-10-24T21:19:54.862Z,8.27
2022-10-24T21:23:01.408Z,7.53
2022-10-24T21:26:09.235Z,7.40
2022-10-24T21:29:32.111Z,6.90
2022-10-24T21:32:39.550Z,7.60
2022-10-24T21:35:47.298Z,12.03
2022-10-24T21:38:56.467Z,14.67
2022-10-24T21:42:02.833Z,6.60
2022-10-24T21:45:09.504Z,5.27
2022-10-24T21:48:15.944Z,5.00
2022-10-24T21:51:26.755Z,7.57
2022-10-24T21:54:33.363Z,8.37
2022-10-24T21:57:39.453Z,7.87
2022-10-24T22:00:45.816Z,6.43
2022-10-24T22:03:51.944Z,6.87
2022-10-24T22:06:59.484Z,5.37
2022-10-24T22:10:05.724Z,6.30
2022-10-24T22:13:11.769Z,5.53
2022-10-24T22:16:19.635Z,6.80
2022-10-24T22:19:25.595Z,5.40
2022-10-24T22:22:32.979Z,4.47
2022-10-24T22:25:39.184Z,5.03
2022-10-24T22:28:45.603Z,5.40
2022-10-24T22:31:53.680Z,6.00
2022-10-24T22:35:00.948Z,7.00
2022-10-24T22:38:10.051Z,9.30
2022-10-24T22:41:16.577Z,14.83
2022-10-24T22:44:23.948Z,14.80
2022-10-24T22:47:49.565Z,11.83
2022-10-24T22:50:57.999Z,10.37
2022-10-24T22:54:06.387Z,5.40
2022-10-24T22:57:12.724Z,4.60
2022-10-24T23:00:20.477Z,5.07
2022-10-24T23:03:34.123Z,5.27
2022-10-24T23:06:47.215Z,5.10
2022-10-24T23:09:54.836Z,5.20
2022-10-24T23:13:01.679Z,5.23
2022-10-24T23:16:21.539Z,6.60
2022-10-24T23:19:29.761Z,6.03
2022-10-24T23:22:35.971Z,6.70
2022-10-24T23:25:48.694Z,5.77
2022-10-24T23:29:04.009Z,4.73
2022-10-24T23:32:19.052Z,5.77
2022-10-24T23:35:25.679Z,6.87
2022-10-24T23:38:32.717Z,6.00
2022-10-24T23:41:41.520Z,5.33
2022-10-24T23:44:48.380Z,5.63
2022-10-24T23:48:22.423Z,4.33
2022-10-24T23:51:32.191Z,4.67
2022-10-24T23:54:38.819Z,4.47
2022-10-24T23:57:46.824Z,5.30
